sensor_id;sensor_type;location;lat;lon;timestamp;P1;durP1;ratioP1;P2;durP2;ratioP2
66384;SDS011;53426;55.872;37.462;2023-03-23T00:01:48;5.05;;;3.50;;
66384;SDS011;53426;55.872;37.462;2023-03-23T00:21:39;5.18;;;2.72;;
66384;SDS011;53426;55.872;37.462;2023-03-23T00:35:25;5.07;;;3.63;;
66384;SDS011;53426;55.872;37.462;2023-03-23T00:44:38;3.83;;;3.40;;
66384;SDS011;53426;55.872;37.462;2023-03-23T00:51:33;3.70;;;3.40;;
66384;SDS011;53426;55.872;37.462;2023-03-23T00:53:59;5.30;;;3.30;;
66384;SDS011;53426;55.872;37.462;2023-03-23T01:03:35;12.90;;;3.97;;
66384;SDS011;53426;55.872;37.462;2023-03-23T01:06:09;12.13;;;4.13;;
66384;SDS011;53426;55.872;37.462;2023-03-23T01:08:44;6.43;;;3.25;;
66384;SDS011;53426;55.872;37.462;2023-03-23T01:11:14;3.78;;;3.35;;
66384;SDS011;53426;55.872;37.462;2023-03-23T01:13:43;9.25;;;3.95;;
66384;SDS011;53426;55.872;37.462;2023-03-23T01:16:10;10.80;;;3.50;;
66384;SDS011;53426;55.872;37.462;2023-03-23T01:18:36;3.92;;;3.22;;
66384;SDS011;53426;55.872;37.462;2023-03-23T01:21:07;3.08;;;2.78;;
66384;SDS011;53426;55.872;37.462;2023-03-23T01:23:39;3.70;;;3.40;;
66384;SDS011;53426;55.872;37.462;2023-03-23T01:26:07;4.78;;;2.75;;
66384;SDS011;53426;55.872;37.462;2023-03-23T01:28:35;7.38;;;2.92;;
66384;SDS011;53426;55.872;37.462;2023-03-23T01:31:03;2.95;;;2.67;;
66384;SDS011;53426;55.872;37.462;2023-03-23T01:33:34;3.20;;;2.90;;
66384;SDS011;53426;55.872;37.462;2023-03-23T01:36:03;3.25;;;2.80;;
66384;SDS011;53426;55.872;37.462;2023-03-23T01:38:31;3.13;;;2.83;;
66384;SDS011;53426;55.872;37.462;2023-03-23T01:41:01;4.30;;;3.15;;
66384;SDS011;53426;55.872;37.462;2023-03-23T01:43:31;3.53;;;3.22;;
66384;SDS011;53426;55.872;37.462;2023-03-23T01:45:57;3.35;;;3.10;;
66384;SDS011;53426;55.872;37.462;2023-03-23T01:48:25;6.45;;;2.85;;
66384;SDS011;53426;55.872;37.462;2023-03-23T01:50:57;4.97;;;3.20;;
66384;SDS011;53426;55.872;37.462;2023-03-23T01:53:34;3.63;;;3.33;;
66384;SDS011;53426;55.872;37.462;2023-03-23T01:56:04;3.47;;;3.10;;
66384;SDS011;53426;55.872;37.462;2023-03-23T01:58:33;3.45;;;2.92;;
66384;SDS011;53426;55.872;37.462;2023-03-23T02:01:03;4.60;;;3.35;;
66384;SDS011;53426;55.872;37.462;2023-03-23T02:03:32;3.38;;;3.08;;
66384;SDS011;53426;55.872;37.462;2023-03-23T02:06:02;3.55;;;3.25;;
66384;SDS011;53426;55.872;37.462;2023-03-23T02:08:40;3.30;;;2.92;;
66384;SDS011;53426;55.872;37.462;2023-03-23T02:11:13;4.50;;;3.78;;
66384;SDS011;53426;55.872;37.462;2023-03-23T02:13:43;4.13;;;3.50;;
66384;SDS011;53426;55.872;37.462;2023-03-23T02:16:15;3.70;;;3.28;;
66384;SDS011;53426;55.872;37.462;2023-03-23T02:22:06;4.28;;;3.20;;
66384;SDS011;53426;55.872;37.462;2023-03-23T02:25:06;3.75;;;3.38;;
66384;SDS011;53426;55.872;37.462;2023-03-23T02:27:40;3.40;;;3.10;;
66384;SDS011;53426;55.872;37.462;2023-03-23T02:33:21;3.88;;;3.40;;
66384;SDS011;53426;55.872;37.462;2023-03-23T02:38:57;3.97;;;3.60;;
66384;SDS011;53426;55.872;37.462;2023-03-23T02:41:42;4.97;;;3.17;;
66384;SDS011;53426;55.872;37.462;2023-03-23T02:44:13;3.40;;;3.10;;
66384;SDS011;53426;55.872;37.462;2023-03-23T02:46:41;3.90;;;3.50;;
66384;SDS011;53426;55.872;37.462;2023-03-23T02:49:09;4.50;;;3.38;;
66384;SDS011;53426;55.872;37.462;2023-03-23T02:51:39;7.20;;;3.50;;
66384;SDS011;53426;55.872;37.462;2023-03-23T02:54:07;3.47;;;3.10;;
66384;SDS011;53426;55.872;37.462;2023-03-23T02:56:34;4.78;;;3.85;;
66384;SDS011;53426;55.872;37.462;2023-03-23T02:59:04;3.40;;;3.10;;
66384;SDS011;53426;55.872;37.462;2023-03-23T03:04:23;4.65;;;3.60;;
66384;SDS011;53426;55.872;37.462;2023-03-23T03:07:14;4.75;;;3.33;;
66384;SDS011;53426;55.872;37.462;2023-03-23T03:09:48;6.70;;;3.67;;
66384;SDS011;53426;55.872;37.462;2023-03-23T03:12:36;4.63;;;3.92;;
66384;SDS011;53426;55.872;37.462;2023-03-23T03:17:54;4.38;;;3.70;;
66384;SDS011;53426;55.872;37.462;2023-03-23T03:20:26;9.40;;;3.92;;
66384;SDS011;53426;55.872;37.462;2023-03-23T03:22:54;3.88;;;3.50;;
66384;SDS011;53426;55.872;37.462;2023-03-23T03:25:23;4.55;;;3.88;;
66384;SDS011;53426;55.872;37.462;2023-03-23T03:27:54;4.97;;;3.63;;
66384;SDS011;53426;55.872;37.462;2023-03-23T03:30:35;6.22;;;3.92;;
66384;SDS011;53426;55.872;37.462;2023-03-23T03:33:03;11.93;;;3.85;;
66384;SDS011;53426;55.872;37.462;2023-03-23T03:35:30;5.82;;;4.18;;
66384;SDS011;53426;55.872;37.462;2023-03-23T03:38:04;6.18;;;4.13;;
66384;SDS011;53426;55.872;37.462;2023-03-23T03:42:58;4.50;;;4.10;;
66384;SDS011;53426;55.872;37.462;2023-03-23T03:45:30;4.57;;;4.10;;
66384;SDS011;53426;55.872;37.462;2023-03-23T03:47:57;5.25;;;3.72;;
66384;SDS011;53426;55.872;37.462;2023-03-23T03:50:23;4.35;;;3.95;;
66384;SDS011;53426;55.872;37.462;2023-03-23T03:52:51;4.40;;;3.95;;
66384;SDS011;53426;55.872;37.462;2023-03-23T03:55:18;9.05;;;4.45;;
66384;SDS011;53426;55.872;37.462;2023-03-23T03:57:50;4.97;;;4.25;;
66384;SDS011;53426;55.872;37.462;2023-03-23T04:00:28;6.95;;;4.45;;
66384;SDS011;53426;55.872;37.462;2023-03-23T04:02:54;7.50;;;4.22;;
66384;SDS011;53426;55.872;37.462;2023-03-23T04:05:35;5.10;;;4.47;;
66384;SDS011;53426;55.872;37.462;2023-03-23T04:08:02;5.03;;;4.50;;
66384;SDS011;53426;55.872;37.462;2023-03-23T04:10:30;5.13;;;4.63;;
66384;SDS011;53426;55.872;37.462;2023-03-23T04:12:58;5.35;;;4.47;;
66384;SDS011;53426;55.872;37.462;2023-03-23T04:15:30;4.97;;;4.28;;
66384;SDS011;53426;55.872;37.462;2023-03-23T04:17:56;14.95;;;5.20;;
66384;SDS011;53426;55.872;37.462;2023-03-23T04:20:23;6.65;;;5.03;;
66384;SDS011;53426;55.872;37.462;2023-03-23T04:22:50;6.53;;;4.72;;
66384;SDS011;53426;55.872;37.462;2023-03-23T04:25:18;8.85;;;4.90;;
66384;SDS011;53426;55.872;37.462;2023-03-23T04:27:50;6.22;;;4.85;;
66384;SDS011;53426;55.872;37.462;2023-03-23T04:30:25;7.72;;;5.38;;
66384;SDS011;53426;55.872;37.462;2023-03-23T04:33:07;6.18;;;4.82;;
66384;SDS011;53426;55.872;37.462;2023-03-23T04:35:34;7.57;;;5.53;;
66384;SDS011;53426;55.872;37.462;2023-03-23T04:38:14;5.93;;;5.32;;
66384;SDS011;53426;55.872;37.462;2023-03-23T04:40:51;7.88;;;5.13;;
66384;SDS011;53426;55.872;37.462;2023-03-23T04:43:46;6.05;;;5.45;;
66384;SDS011;53426;55.872;37.462;2023-03-23T04:47:05;5.55;;;5.05;;
66384;SDS011;53426;55.872;37.462;2023-03-23T04:49:37;5.90;;;5.18;;
66384;SDS011;53426;55.872;37.462;2023-03-23T04:54:45;6.60;;;5.10;;
66384;SDS011;53426;55.872;37.462;2023-03-23T04:57:11;11.70;;;5.53;;
66384;SDS011;53426;55.872;37.462;2023-03-23T04:59:42;8.82;;;5.07;;
66384;SDS011;53426;55.872;37.462;2023-03-23T05:02:15;7.00;;;5.00;;
66384;SDS011;53426;55.872;37.462;2023-03-23T05:04:44;8.05;;;4.60;;
66384;SDS011;53426;55.872;37.462;2023-03-23T05:07:17;6.10;;;4.93;;
66384;SDS011;53426;55.872;37.462;2023-03-23T05:09:46;4.60;;;4.20;;
66384;SDS011;53426;55.872;37.462;2023-03-23T05:12:14;7.40;;;5.22;;
66384;SDS011;53426;55.872;37.462;2023-03-23T05:15:03;5.07;;;4.60;;
66384;SDS011;53426;55.872;37.462;2023-03-23T05:17:31;11.13;;;4.40;;
66384;SDS011;53426;55.872;37.462;2023-03-23T05:20:00;6.07;;;4.63;;
66384;SDS011;53426;55.872;37.462;2023-03-23T05:22:47;6.00;;;4.82;;
66384;SDS011;53426;55.872;37.462;2023-03-23T05:25:17;5.95;;;4.88;;
66384;SDS011;53426;55.872;37.462;2023-03-23T05:27:56;10.45;;;4.72;;
66384;SDS011;53426;55.872;37.462;2023-03-23T05:30:46;8.07;;;5.13;;
66384;SDS011;53426;55.872;37.462;2023-03-23T05:33:14;7.28;;;4.63;;
66384;SDS011;53426;55.872;37.462;2023-03-23T05:35:47;5.80;;;5.05;;
66384;SDS011;53426;55.872;37.462;2023-03-23T05:38:18;6.63;;;5.60;;
66384;SDS011;53426;55.872;37.462;2023-03-23T05:40:45;9.85;;;5.15;;
66384;SDS011;53426;55.872;37.462;2023-03-23T05:43:14;8.43;;;5.13;;
66384;SDS011;53426;55.872;37.462;2023-03-23T05:46:15;7.57;;;5.70;;
66384;SDS011;53426;55.872;37.462;2023-03-23T05:48:45;6.72;;;5.65;;
66384;SDS011;53426;55.872;37.462;2023-03-23T05:51:15;14.52;;;5.35;;
66384;SDS011;53426;55.872;37.462;2023-03-23T05:53:44;8.23;;;5.25;;
66384;SDS011;53426;55.872;37.462;2023-03-23T05:56:12;9.68;;;5.32;;
66384;SDS011;53426;55.872;37.462;2023-03-23T05:58:59;9.50;;;5.28;;
66384;SDS011;53426;55.872;37.462;2023-03-23T06:01:26;13.23;;;5.55;;
66384;SDS011;53426;55.872;37.462;2023-03-23T06:03:54;11.75;;;5.78;;
66384;SDS011;53426;55.872;37.462;2023-03-23T06:06:29;10.00;;;5.88;;
66384;SDS011;53426;55.872;37.462;2023-03-23T06:09:04;8.57;;;5.95;;
66384;SDS011;53426;55.872;37.462;2023-03-23T06:11:49;8.70;;;5.37;;
66384;SDS011;53426;55.872;37.462;2023-03-23T06:14:35;8.85;;;5.88;;
66384;SDS011;53426;55.872;37.462;2023-03-23T06:17:02;11.85;;;6.00;;
66384;SDS011;53426;55.872;37.462;2023-03-23T06:19:28;9.65;;;6.05;;
66384;SDS011;53426;55.872;37.462;2023-03-23T06:22:06;9.73;;;5.85;;
66384;SDS011;53426;55.872;37.462;2023-03-23T06:24:52;11.45;;;5.70;;
66384;SDS011;53426;55.872;37.462;2023-03-23T06:27:24;7.50;;;5.70;;
66384;SDS011;53426;55.872;37.462;2023-03-23T06:29:50;8.38;;;6.00;;
66384;SDS011;53426;55.872;37.462;2023-03-23T06:32:16;13.50;;;6.32;;
66384;SDS011;53426;55.872;37.462;2023-03-23T06:34:43;10.77;;;5.82;;
66384;SDS011;53426;55.872;37.462;2023-03-23T06:37:30;10.82;;;5.85;;
66384;SDS011;53426;55.872;37.462;2023-03-23T06:40:04;7.72;;;5.15;;
66384;SDS011;53426;55.872;37.462;2023-03-23T06:42:38;7.88;;;5.32;;
66384;SDS011;53426;55.872;37.462;2023-03-23T06:45:23;6.85;;;6.05;;
66384;SDS011;53426;55.872;37.462;2023-03-23T06:47:59;11.30;;;5.90;;
66384;SDS011;53426;55.872;37.462;2023-03-23T06:50:28;15.50;;;5.90;;
66384;SDS011;53426;55.872;37.462;2023-03-23T06:52:56;15.45;;;6.63;;
66384;SDS011;53426;55.872;37.462;2023-03-23T06:55:22;8.77;;;6.68;;
66384;SDS011;53426;55.872;37.462;2023-03-23T06:57:48;11.00;;;5.75;;
66384;SDS011;53426;55.872;37.462;2023-03-23T07:00:14;8.45;;;5.90;;
66384;SDS011;53426;55.872;37.462;2023-03-23T07:02:41;8.90;;;5.93;;
66384;SDS011;53426;55.872;37.462;2023-03-23T07:05:09;12.25;;;6.20;;
66384;SDS011;53426;55.872;37.462;2023-03-23T07:07:38;9.60;;;5.90;;
66384;SDS011;53426;55.872;37.462;2023-03-23T07:10:25;12.38;;;5.80;;
66384;SDS011;53426;55.872;37.462;2023-03-23T07:12:52;11.38;;;5.65;;
66384;SDS011;53426;55.872;37.462;2023-03-23T07:15:18;13.65;;;6.05;;
66384;SDS011;53426;55.872;37.462;2023-03-23T07:17:50;8.10;;;6.05;;
66384;SDS011;53426;55.872;37.462;2023-03-23T07:20:23;11.02;;;5.00;;
66384;SDS011;53426;55.872;37.462;2023-03-23T07:22:49;6.68;;;5.15;;
66384;SDS011;53426;55.872;37.462;2023-03-23T07:25:37;7.65;;;5.70;;
66384;SDS011;53426;55.872;37.462;2023-03-23T07:28:03;10.35;;;5.57;;
66384;SDS011;53426;55.872;37.462;2023-03-23T07:30:29;12.70;;;5.47;;
66384;SDS011;53426;55.872;37.462;2023-03-23T07:32:56;15.63;;;5.80;;
66384;SDS011;53426;55.872;37.462;2023-03-23T07:35:24;20.30;;;5.63;;
66384;SDS011;53426;55.872;37.462;2023-03-23T07:38:01;8.48;;;5.38;;
66384;SDS011;53426;55.872;37.462;2023-03-23T07:40:28;12.98;;;5.65;;
66384;SDS011;53426;55.872;37.462;2023-03-23T07:43:01;18.77;;;7.53;;
66384;SDS011;53426;55.872;37.462;2023-03-23T07:45:54;10.32;;;5.57;;
66384;SDS011;53426;55.872;37.462;2023-03-23T07:48:23;19.15;;;5.20;;
66384;SDS011;53426;55.872;37.462;2023-03-23T07:50:50;7.38;;;5.22;;
66384;SDS011;53426;55.872;37.462;2023-03-23T07:53:16;6.20;;;5.40;;
66384;SDS011;53426;55.872;37.462;2023-03-23T07:55:48;7.13;;;5.22;;
66384;SDS011;53426;55.872;37.462;2023-03-23T07:58:34;8.82;;;5.30;;
66384;SDS011;53426;55.872;37.462;2023-03-23T08:01:01;11.65;;;5.35;;
66384;SDS011;53426;55.872;37.462;2023-03-23T08:03:31;8.35;;;4.95;;
66384;SDS011;53426;55.872;37.462;2023-03-23T08:09:04;11.93;;;5.60;;
66384;SDS011;53426;55.872;37.462;2023-03-23T08:11:53;5.70;;;5.07;;
66384;SDS011;53426;55.872;37.462;2023-03-23T08:14:38;6.32;;;4.93;;
66384;SDS011;53426;55.872;37.462;2023-03-23T08:17:25;13.85;;;5.57;;
66384;SDS011;53426;55.872;37.462;2023-03-23T08:22:58;8.93;;;4.97;;
66384;SDS011;53426;55.872;37.462;2023-03-23T08:25:48;8.80;;;5.03;;
66384;SDS011;53426;55.872;37.462;2023-03-23T08:28:14;6.40;;;5.10;;
66384;SDS011;53426;55.872;37.462;2023-03-23T08:30:58;7.13;;;4.97;;
66384;SDS011;53426;55.872;37.462;2023-03-23T08:33:53;7.03;;;5.38;;
66384;SDS011;53426;55.872;37.462;2023-03-23T08:36:42;12.10;;;5.35;;
66384;SDS011;53426;55.872;37.462;2023-03-23T08:39:28;5.53;;;4.80;;
66384;SDS011;53426;55.872;37.462;2023-03-23T08:42:25;9.70;;;5.03;;
66384;SDS011;53426;55.872;37.462;2023-03-23T08:44:54;9.05;;;5.22;;
66384;SDS011;53426;55.872;37.462;2023-03-23T08:47:39;7.10;;;4.97;;
66384;SDS011;53426;55.872;37.462;2023-03-23T08:50:26;8.05;;;4.68;;
66384;SDS011;53426;55.872;37.462;2023-03-23T08:53:10;7.95;;;4.60;;
66384;SDS011;53426;55.872;37.462;2023-03-23T08:55:42;22.55;;;5.07;;
66384;SDS011;53426;55.872;37.462;2023-03-23T08:58:21;4.60;;;4.20;;
66384;SDS011;53426;55.872;37.462;2023-03-23T09:00:48;5.28;;;4.47;;
66384;SDS011;53426;55.872;37.462;2023-03-23T09:03:48;5.88;;;4.30;;
66384;SDS011;53426;55.872;37.462;2023-03-23T09:06:36;4.22;;;3.92;;
66384;SDS011;53426;55.872;37.462;2023-03-23T09:09:02;4.97;;;4.57;;
66384;SDS011;53426;55.872;37.462;2023-03-23T09:11:35;5.05;;;4.40;;
66384;SDS011;53426;55.872;37.462;2023-03-23T09:14:03;6.80;;;4.65;;
66384;SDS011;53426;55.872;37.462;2023-03-23T09:16:30;6.93;;;4.63;;
66384;SDS011;53426;55.872;37.462;2023-03-23T09:18:56;7.60;;;4.93;;
66384;SDS011;53426;55.872;37.462;2023-03-23T09:24:14;12.35;;;4.85;;
66384;SDS011;53426;55.872;37.462;2023-03-23T09:26:43;5.15;;;4.75;;
66384;SDS011;53426;55.872;37.462;2023-03-23T09:29:08;9.38;;;4.80;;
66384;SDS011;53426;55.872;37.462;2023-03-23T09:31:34;8.38;;;4.72;;
66384;SDS011;53426;55.872;37.462;2023-03-23T09:34:02;7.95;;;4.72;;
66384;SDS011;53426;55.872;37.462;2023-03-23T09:36:29;5.03;;;4.50;;
66384;SDS011;53426;55.872;37.462;2023-03-23T09:38:58;10.57;;;5.15;;
66384;SDS011;53426;55.872;37.462;2023-03-23T09:44:30;5.30;;;4.43;;
66384;SDS011;53426;55.872;37.462;2023-03-23T09:50:15;4.63;;;3.97;;
66384;SDS011;53426;55.872;37.462;2023-03-23T09:52:56;7.13;;;4.65;;
66384;SDS011;53426;55.872;37.462;2023-03-23T09:55:40;7.70;;;5.05;;
66384;SDS011;53426;55.872;37.462;2023-03-23T09:58:24;8.00;;;4.80;;
66384;SDS011;53426;55.872;37.462;2023-03-23T10:01:00;8.68;;;4.90;;
66384;SDS011;53426;55.872;37.462;2023-03-23T10:03:52;5.93;;;4.50;;
66384;SDS011;53426;55.872;37.462;2023-03-23T10:06:25;8.43;;;4.43;;
66384;SDS011;53426;55.872;37.462;2023-03-23T10:08:53;5.20;;;4.70;;
66384;SDS011;53426;55.872;37.462;2023-03-23T10:14:04;4.45;;;4.05;;
66384;SDS011;53426;55.872;37.462;2023-03-23T10:17:02;15.48;;;4.38;;
66384;SDS011;53426;55.872;37.462;2023-03-23T10:22:29;6.28;;;4.07;;
66384;SDS011;53426;55.872;37.462;2023-03-23T10:27:44;7.75;;;4.13;;
66384;SDS011;53426;55.872;37.462;2023-03-23T10:32:51;7.93;;;4.28;;
66384;SDS011;53426;55.872;37.462;2023-03-23T10:38:14;7.80;;;3.83;;
66384;SDS011;53426;55.872;37.462;2023-03-23T10:40:50;10.35;;;4.38;;
66384;SDS011;53426;55.872;37.462;2023-03-23T10:43:25;4.72;;;4.20;;
66384;SDS011;53426;55.872;37.462;2023-03-23T10:46:02;8.57;;;4.25;;
66384;SDS011;53426;55.872;37.462;2023-03-23T10:48:50;7.57;;;4.20;;
66384;SDS011;53426;55.872;37.462;2023-03-23T10:51:22;10.27;;;4.28;;
66384;SDS011;53426;55.872;37.462;2023-03-23T10:54:39;4.07;;;3.75;;
66384;SDS011;53426;55.872;37.462;2023-03-23T10:57:28;6.95;;;3.78;;
66384;SDS011;53426;55.872;37.462;2023-03-23T11:02:38;5.22;;;3.85;;
66384;SDS011;53426;55.872;37.462;2023-03-23T11:05:23;11.32;;;4.22;;
66384;SDS011;53426;55.872;37.462;2023-03-23T11:07:56;11.38;;;3.47;;
66384;SDS011;53426;55.872;37.462;2023-03-23T11:10:24;6.72;;;3.90;;
66384;SDS011;53426;55.872;37.462;2023-03-23T11:12:58;6.40;;;3.65;;
66384;SDS011;53426;55.872;37.462;2023-03-23T11:15:32;8.82;;;4.60;;
66384;SDS011;53426;55.872;37.462;2023-03-23T11:18:04;6.18;;;3.78;;
66384;SDS011;53426;55.872;37.462;2023-03-23T11:21:03;12.13;;;3.92;;
66384;SDS011;53426;55.872;37.462;2023-03-23T11:23:38;5.78;;;3.88;;
66384;SDS011;53426;55.872;37.462;2023-03-23T11:26:10;10.05;;;4.40;;
66384;SDS011;53426;55.872;37.462;2023-03-23T11:32:12;6.07;;;3.95;;
66384;SDS011;53426;55.872;37.462;2023-03-23T11:34:44;5.10;;;4.15;;
66384;SDS011;53426;55.872;37.462;2023-03-23T11:40:03;6.03;;;3.72;;
66384;SDS011;53426;55.872;37.462;2023-03-23T11:42:48;6.78;;;3.63;;
66384;SDS011;53426;55.872;37.462;2023-03-23T11:45:38;6.03;;;3.38;;
66384;SDS011;53426;55.872;37.462;2023-03-23T11:56:46;7.68;;;3.55;;
66384;SDS011;53426;55.872;37.462;2023-03-23T11:59:09;6.57;;;3.65;;
66384;SDS011;53426;55.872;37.462;2023-03-23T12:13:40;16.33;;;3.70;;
66384;SDS011;53426;55.872;37.462;2023-03-23T12:18:36;5.30;;;3.78;;
66384;SDS011;53426;55.872;37.462;2023-03-23T12:24:08;5.05;;;3.67;;
66384;SDS011;53426;55.872;37.462;2023-03-23T12:32:59;7.97;;;3.78;;
66384;SDS011;53426;55.872;37.462;2023-03-23T12:44:31;6.82;;;4.03;;
66384;SDS011;53426;55.872;37.462;2023-03-23T12:53:15;6.00;;;4.15;;
66384;SDS011;53426;55.872;37.462;2023-03-23T12:55:50;6.15;;;3.80;;
66384;SDS011;53426;55.872;37.462;2023-03-23T12:58:31;6.53;;;3.78;;
66384;SDS011;53426;55.872;37.462;2023-03-23T13:01:08;8.70;;;3.70;;
66384;SDS011;53426;55.872;37.462;2023-03-23T13:03:54;12.82;;;3.38;;
66384;SDS011;53426;55.872;37.462;2023-03-23T13:06:43;5.03;;;3.55;;
66384;SDS011;53426;55.872;37.462;2023-03-23T13:12:04;4.78;;;3.50;;
66384;SDS011;53426;55.872;37.462;2023-03-23T13:17:33;7.77;;;3.93;;
66384;SDS011;53426;55.872;37.462;2023-03-23T13:29:23;9.43;;;3.85;;
66384;SDS011;53426;55.872;37.462;2023-03-23T13:31:38;7.28;;;3.92;;
66384;SDS011;53426;55.872;37.462;2023-03-23T13:34:21;6.72;;;3.95;;
66384;SDS011;53426;55.872;37.462;2023-03-23T13:37:04;4.18;;;3.78;;
66384;SDS011;53426;55.872;37.462;2023-03-23T13:39:33;5.00;;;3.90;;
66384;SDS011;53426;55.872;37.462;2023-03-23T13:50:09;7.88;;;3.97;;
66384;SDS011;53426;55.872;37.462;2023-03-23T13:55:30;4.35;;;3.95;;
66384;SDS011;53426;55.872;37.462;2023-03-23T13:58:10;7.43;;;4.40;;
66384;SDS011;53426;55.872;37.462;2023-03-23T14:00:48;9.85;;;4.20;;
66384;SDS011;53426;55.872;37.462;2023-03-23T14:03:31;7.43;;;4.45;;
66384;SDS011;53426;55.872;37.462;2023-03-23T14:09:06;10.55;;;4.38;;
66384;SDS011;53426;55.872;37.462;2023-03-23T14:14:29;5.68;;;4.32;;
66384;SDS011;53426;55.872;37.462;2023-03-23T14:17:14;5.72;;;4.45;;
66384;SDS011;53426;55.872;37.462;2023-03-23T14:19:44;5.10;;;4.37;;
66384;SDS011;53426;55.872;37.462;2023-03-23T14:22:19;7.88;;;4.28;;
66384;SDS011;53426;55.872;37.462;2023-03-23T14:24:50;7.05;;;4.00;;
66384;SDS011;53426;55.872;37.462;2023-03-23T14:27:21;6.13;;;4.45;;
66384;SDS011;53426;55.872;37.462;2023-03-23T14:29:57;7.57;;;4.00;;
66384;SDS011;53426;55.872;37.462;2023-03-23T14:32:25;11.23;;;4.18;;
66384;SDS011;53426;55.872;37.462;2023-03-23T14:34:54;5.10;;;4.22;;
66384;SDS011;53426;55.872;37.462;2023-03-23T14:37:21;6.53;;;4.10;;
66384;SDS011;53426;55.872;37.462;2023-03-23T14:39:48;8.88;;;3.90;;
66384;SDS011;53426;55.872;37.462;2023-03-23T14:42:18;4.55;;;3.70;;
66384;SDS011;53426;55.872;37.462;2023-03-23T14:44:48;10.48;;;4.63;;
66384;SDS011;53426;55.872;37.462;2023-03-23T14:47:20;4.75;;;4.25;;
66384;SDS011;53426;55.872;37.462;2023-03-23T14:49:52;6.40;;;4.07;;
66384;SDS011;53426;55.872;37.462;2023-03-23T14:52:21;8.57;;;5.00;;
66384;SDS011;53426;55.872;37.462;2023-03-23T14:54:51;7.10;;;4.20;;
66384;SDS011;53426;55.872;37.462;2023-03-23T14:57:25;9.73;;;4.43;;
66384;SDS011;53426;55.872;37.462;2023-03-23T14:59:53;4.97;;;4.15;;
66384;SDS011;53426;55.872;37.462;2023-03-23T15:05:11;4.97;;;4.50;;
66384;SDS011;53426;55.872;37.462;2023-03-23T15:07:54;4.85;;;4.28;;
66384;SDS011;53426;55.872;37.462;2023-03-23T15:10:25;5.85;;;4.72;;
66384;SDS011;53426;55.872;37.462;2023-03-23T15:12:51;6.80;;;4.63;;
66384;SDS011;53426;55.872;37.462;2023-03-23T15:17:59;7.38;;;4.50;;
66384;SDS011;53426;55.872;37.462;2023-03-23T15:21:07;14.52;;;5.10;;
66384;SDS011;53426;55.872;37.462;2023-03-23T15:23:22;6.53;;;4.50;;
66384;SDS011;53426;55.872;37.462;2023-03-23T15:25:56;9.00;;;5.13;;
66384;SDS011;53426;55.872;37.462;2023-03-23T15:28:32;6.90;;;4.50;;
66384;SDS011;53426;55.872;37.462;2023-03-23T15:31:05;8.40;;;4.82;;
66384;SDS011;53426;55.872;37.462;2023-03-23T15:33:35;7.55;;;4.47;;
66384;SDS011;53426;55.872;37.462;2023-03-23T15:36:07;5.03;;;4.40;;
66384;SDS011;53426;55.872;37.462;2023-03-23T15:38:42;9.02;;;4.97;;
66384;SDS011;53426;55.872;37.462;2023-03-23T15:41:20;5.90;;;5.25;;
66384;SDS011;53426;55.872;37.462;2023-03-23T15:43:53;13.70;;;4.88;;
66384;SDS011;53426;55.872;37.462;2023-03-23T15:46:24;6.18;;;4.63;;
66384;SDS011;53426;55.872;37.462;2023-03-23T15:51:24;12.30;;;4.97;;
66384;SDS011;53426;55.872;37.462;2023-03-23T15:53:51;4.95;;;4.45;;
66384;SDS011;53426;55.872;37.462;2023-03-23T15:56:19;7.03;;;5.70;;
66384;SDS011;53426;55.872;37.462;2023-03-23T15:58:45;7.82;;;4.80;;
66384;SDS011;53426;55.872;37.462;2023-03-23T16:01:12;8.63;;;5.05;;
66384;SDS011;53426;55.872;37.462;2023-03-23T16:04:12;10.75;;;4.80;;
66384;SDS011;53426;55.872;37.462;2023-03-23T16:06:41;9.82;;;5.47;;
66384;SDS011;53426;55.872;37.462;2023-03-23T16:09:07;9.75;;;4.90;;
66384;SDS011;53426;55.872;37.462;2023-03-23T16:11:43;8.60;;;5.30;;
66384;SDS011;53426;55.872;37.462;2023-03-23T16:14:10;13.70;;;5.22;;
66384;SDS011;53426;55.872;37.462;2023-03-23T16:16:37;5.65;;;4.95;;
66384;SDS011;53426;55.872;37.462;2023-03-23T16:19:10;11.23;;;4.95;;
66384;SDS011;53426;55.872;37.462;2023-03-23T16:21:37;15.45;;;4.80;;
66384;SDS011;53426;55.872;37.462;2023-03-23T16:24:03;8.50;;;5.00;;
66384;SDS011;53426;55.872;37.462;2023-03-23T16:26:29;13.85;;;4.80;;
66384;SDS011;53426;55.872;37.462;2023-03-23T16:28:55;5.20;;;4.13;;
66384;SDS011;53426;55.872;37.462;2023-03-23T16:31:21;5.18;;;4.68;;
66384;SDS011;53426;55.872;37.462;2023-03-23T16:33:48;12.52;;;6.32;;
66384;SDS011;53426;55.872;37.462;2023-03-23T16:36:14;7.22;;;4.93;;
66384;SDS011;53426;55.872;37.462;2023-03-23T16:38:40;8.30;;;4.97;;
66384;SDS011;53426;55.872;37.462;2023-03-23T16:41:06;6.75;;;4.70;;
66384;SDS011;53426;55.872;37.462;2023-03-23T16:43:33;12.25;;;5.78;;
66384;SDS011;53426;55.872;37.462;2023-03-23T16:45:59;11.93;;;5.50;;
66384;SDS011;53426;55.872;37.462;2023-03-23T16:48:26;8.90;;;4.75;;
66384;SDS011;53426;55.872;37.462;2023-03-23T16:50:52;10.38;;;5.35;;
66384;SDS011;53426;55.872;37.462;2023-03-23T16:53:19;6.53;;;5.57;;
66384;SDS011;53426;55.872;37.462;2023-03-23T16:55:46;5.70;;;4.78;;
66384;SDS011;53426;55.872;37.462;2023-03-23T16:58:13;11.18;;;5.85;;
66384;SDS011;53426;55.872;37.462;2023-03-23T17:00:40;6.40;;;5.15;;
66384;SDS011;53426;55.872;37.462;2023-03-23T17:03:08;7.38;;;4.72;;
66384;SDS011;53426;55.872;37.462;2023-03-23T17:05:35;12.98;;;5.18;;
66384;SDS011;53426;55.872;37.462;2023-03-23T17:08:02;12.57;;;7.07;;
66384;SDS011;53426;55.872;37.462;2023-03-23T17:10:28;11.88;;;5.05;;
66384;SDS011;53426;55.872;37.462;2023-03-23T17:12:55;5.53;;;4.90;;
66384;SDS011;53426;55.872;37.462;2023-03-23T17:15:22;16.15;;;5.60;;
66384;SDS011;53426;55.872;37.462;2023-03-23T17:17:51;10.60;;;5.45;;
66384;SDS011;53426;55.872;37.462;2023-03-23T17:20:18;12.38;;;5.47;;
66384;SDS011;53426;55.872;37.462;2023-03-23T17:22:43;16.60;;;5.43;;
66384;SDS011;53426;55.872;37.462;2023-03-23T17:25:10;13.73;;;5.82;;
66384;SDS011;53426;55.872;37.462;2023-03-23T17:27:37;7.53;;;4.97;;
66384;SDS011;53426;55.872;37.462;2023-03-23T17:30:03;12.57;;;6.00;;
66384;SDS011;53426;55.872;37.462;2023-03-23T17:32:31;9.38;;;5.00;;
66384;SDS011;53426;55.872;37.462;2023-03-23T17:34:57;7.45;;;5.10;;
66384;SDS011;53426;55.872;37.462;2023-03-23T17:37:23;10.93;;;5.22;;
66384;SDS011;53426;55.872;37.462;2023-03-23T17:39:49;7.78;;;5.22;;
66384;SDS011;53426;55.872;37.462;2023-03-23T17:42:14;8.73;;;5.40;;
66384;SDS011;53426;55.872;37.462;2023-03-23T17:44:40;7.18;;;5.10;;
66384;SDS011;53426;55.872;37.462;2023-03-23T17:47:06;8.18;;;5.75;;
66384;SDS011;53426;55.872;37.462;2023-03-23T17:49:32;11.32;;;5.15;;
66384;SDS011;53426;55.872;37.462;2023-03-23T17:51:59;9.20;;;5.50;;
66384;SDS011;53426;55.872;37.462;2023-03-23T17:54:25;8.60;;;5.75;;
66384;SDS011;53426;55.872;37.462;2023-03-23T17:56:53;22.20;;;6.07;;
66384;SDS011;53426;55.872;37.462;2023-03-23T17:59:22;10.88;;;5.97;;
66384;SDS011;53426;55.872;37.462;2023-03-23T18:01:49;14.30;;;5.88;;
66384;SDS011;53426;55.872;37.462;2023-03-23T18:04:15;11.85;;;5.75;;
66384;SDS011;53426;55.872;37.462;2023-03-23T18:06:41;12.18;;;6.15;;
66384;SDS011;53426;55.872;37.462;2023-03-23T18:09:07;6.03;;;5.25;;
66384;SDS011;53426;55.872;37.462;2023-03-23T18:11:33;15.95;;;5.93;;
66384;SDS011;53426;55.872;37.462;2023-03-23T18:14:01;13.70;;;5.70;;
66384;SDS011;53426;55.872;37.462;2023-03-23T18:16:26;9.55;;;5.78;;